createdAt,value
2022-08-11T00:04:58.462Z,17.93
2022-08-11T00:10:01.398Z,17.78
2022-08-11T00:15:02.663Z,17.64
2022-08-11T00:20:13.697Z,17.52
2022-08-11T00:25:20.208Z,17.53
2022-08-11T00:30:20.827Z,17.60
2022-08-11T00:35:50.978Z,17.43
2022-08-11T00:40:56.464Z,17.28
2022-08-11T00:46:13.516Z,17.40
2022-08-11T00:51:26.377Z,17.34
2022-08-11T00:57:36.783Z,17.18
2022-08-11T01:03:15.293Z,17.14
2022-08-11T01:08:31.135Z,17.06
2022-08-11T01:14:05.469Z,17.12
2022-08-11T01:20:38.466Z,16.99
2022-08-11T01:25:57.041Z,16.76
2022-08-11T01:31:38.661Z,16.66
2022-08-11T01:37:03.660Z,16.56
2022-08-11T01:43:00.075Z,16.48
2022-08-11T01:48:06.684Z,16.53
2022-08-11T01:53:19.009Z,16.52
2022-08-11T01:58:43.168Z,16.51
2022-08-11T02:03:48.947Z,16.50
2022-08-11T02:08:59.972Z,16.53
2022-08-11T02:14:25.590Z,16.29
2022-08-11T02:19:56.023Z,16.11
2022-08-11T02:25:02.961Z,16.07
2022-08-11T02:30:07.544Z,15.98
2022-08-11T02:35:18.950Z,15.96
2022-08-11T02:40:31.298Z,15.86
2022-08-11T02:45:50.098Z,15.96
2022-08-11T02:51:02.136Z,16.13
2022-08-11T02:56:14.044Z,16.14
2022-08-11T03:01:24.499Z,16.06
2022-08-11T03:06:36.360Z,15.92
2022-08-11T03:12:14.360Z,15.69
2022-08-11T03:17:26.850Z,15.53
2022-08-11T03:22:33.894Z,15.50
2022-08-11T03:27:47.268Z,15.50
2022-08-11T03:33:19.801Z,15.34
2022-08-11T03:38:30.775Z,15.28
2022-08-11T03:43:58.762Z,15.15
2022-08-11T03:49:10.466Z,15.17
2022-08-11T03:54:26.347Z,15.11
2022-08-11T03:59:56.832Z,15.07
2022-08-11T04:05:29.225Z,15.08
2022-08-11T04:10:47.858Z,15.12
2022-08-11T04:16:11.065Z,15.21
2022-08-11T04:21:27.823Z,15.22
2022-08-11T04:27:00.165Z,15.22
2022-08-11T04:32:25.620Z,15.21
2022-08-11T04:37:42.542Z,15.27
2022-08-11T04:43:29.069Z,15.41
2022-08-11T04:49:10.766Z,15.40
2022-08-11T04:54:47.656Z,15.62
2022-08-11T05:00:23.557Z,15.72
2022-08-11T05:05:37.022Z,15.73
2022-08-11T05:10:59.469Z,15.81
2022-08-11T05:16:26.536Z,15.80
2022-08-11T05:21:46.396Z,15.92
2022-08-11T05:27:13.388Z,15.96
2022-08-11T05:32:35.769Z,16.06
2022-08-11T05:38:01.708Z,16.13
2022-08-11T05:43:21.894Z,16.33
2022-08-11T05:48:40.929Z,16.53
2022-08-11T05:54:28.596Z,16.67
2022-08-11T05:59:32.544Z,16.90
2022-08-11T06:04:34.402Z,17.12
2022-08-11T06:09:38.843Z,17.39
2022-08-11T06:14:46.073Z,17.56
2022-08-11T06:19:49.767Z,17.72
2022-08-11T06:24:57.027Z,17.92
2022-08-11T06:29:58.285Z,18.04
2022-08-11T06:35:18.751Z,18.14
2022-08-11T06:40:31.498Z,18.38
2022-08-11T06:45:40.055Z,18.69
2022-08-11T06:50:58.868Z,18.92
2022-08-11T06:56:18.980Z,19.07
2022-08-11T07:01:28.293Z,19.32
2022-08-11T07:06:41.673Z,19.40
2022-08-11T07:12:20.677Z,19.66
2022-08-11T07:17:23.681Z,19.89
2022-08-11T07:22:45.498Z,20.15
2022-08-11T07:28:19.448Z,20.33
2022-08-11T07:34:07.860Z,20.37
2022-08-11T07:38:52.620Z,20.61
2022-08-11T07:44:08.729Z,20.92
2022-08-11T07:49:29.267Z,21.24
2022-08-11T07:54:33.422Z,21.39
2022-08-11T08:00:04.342Z,21.70
2022-08-11T08:05:36.563Z,21.97
2022-08-11T08:10:56.817Z,22.25
2022-08-11T08:16:16.938Z,22.37
2022-08-11T08:21:17.698Z,22.56
2022-08-11T08:26:33.612Z,22.87
2022-08-11T08:31:35.738Z,23.45
2022-08-11T08:36:37.401Z,23.79
2022-08-11T08:41:40.034Z,24.63
2022-08-11T08:46:44.555Z,25.22
2022-08-11T08:51:58.680Z,25.41
2022-08-11T08:57:12.144Z,25.35
2022-08-11T09:02:14.322Z,25.63
2022-08-11T09:07:17.723Z,25.56
2022-08-11T09:12:36.210Z,25.96
2022-08-11T09:17:44.575Z,26.18
2022-08-11T09:24:02.151Z,26.50
2022-08-11T09:28:25.790Z,26.33
2022-08-11T09:33:29.557Z,26.32
2022-08-11T09:38:49.728Z,26.46
2022-08-11T09:44:08.614Z,26.36
2022-08-11T09:49:11.074Z,26.15
2022-08-11T09:54:13.457Z,26.69
2022-08-11T09:59:14.206Z,27.01
2022-08-11T10:04:18.221Z,27.05
2022-08-11T10:09:22.173Z,26.81
2022-08-11T10:14:44.801Z,26.83
2022-08-11T10:20:04.082Z,26.50
2022-08-11T10:25:25.749Z,26.77
2022-08-11T10:30:44.929Z,26.98
2022-08-11T10:35:47.142Z,26.91
2022-08-11T10:41:10.813Z,27.46
2022-08-11T10:46:30.734Z,27.30
2022-08-11T10:51:52.111Z,27.31
2022-08-11T10:57:13.681Z,27.43
2022-08-11T11:02:16.058Z,27.15
2022-08-11T11:07:24.175Z,27.34
2022-08-11T11:12:45.670Z,27.41
2022-08-11T11:17:57.711Z,27.28
2022-08-11T11:23:05.721Z,27.15
2022-08-11T11:28:34.056Z,27.52
2022-08-11T11:34:06.195Z,27.69
2022-08-11T11:39:10.787Z,27.51
2022-08-11T11:44:14.060Z,27.63
2022-08-11T11:49:18.592Z,27.63
2022-08-11T11:54:23.763Z,27.52
2022-08-11T11:59:44.504Z,27.32
2022-08-11T12:04:48.779Z,27.57
2022-08-11T12:09:51.736Z,27.55
2022-08-11T12:14:54.326Z,27.70
2022-08-11T12:19:57.259Z,27.44
2022-08-11T12:25:17.114Z,27.31
2022-08-11T12:30:20.106Z,27.58
2022-08-11T12:35:21.082Z,27.73
2022-08-11T12:41:11.680Z,28.01
2022-08-11T12:46:07.466Z,28.42
2022-08-11T12:51:30.781Z,28.81
2022-08-11T12:57:15.952Z,28.65
2022-08-11T13:02:54.789Z,28.46
2022-08-11T13:07:55.666Z,28.52
2022-08-11T13:12:57.795Z,28.50
2022-08-11T13:18:00.314Z,28.63
2022-08-11T13:23:01.931Z,28.85
2022-08-11T13:28:06.295Z,28.81
2022-08-11T13:33:08.425Z,28.89
2022-08-11T13:38:17.935Z,28.53
2022-08-11T13:43:24.186Z,28.25
2022-08-11T13:48:25.041Z,28.08
2022-08-11T13:53:28.306Z,28.12
2022-08-11T13:58:39.553Z,28.44
2022-08-11T14:04:29.101Z,28.44
2022-08-11T14:09:05.317Z,28.44
2022-08-11T14:14:11.472Z,28.63
2022-08-11T14:19:15.331Z,28.62
2022-08-11T14:24:18.661Z,28.69
2022-08-11T14:29:22.663Z,28.80
2022-08-11T14:34:27.476Z,28.78
2022-08-11T14:39:30.169Z,28.77
2022-08-11T14:44:51.564Z,28.86
2022-08-11T14:50:03.090Z,28.94
2022-08-11T14:55:30.821Z,28.84
2022-08-11T15:00:35.441Z,28.63
2022-08-11T15:05:37.145Z,28.57
2022-08-11T15:10:38.146Z,28.51
2022-08-11T15:16:02.553Z,28.78
2022-08-11T15:21:23.868Z,28.80
2022-08-11T15:26:45.893Z,28.55
2022-08-11T15:32:06.550Z,28.61
2022-08-11T15:37:31.460Z,28.58
2022-08-11T15:42:51.584Z,28.76
2022-08-11T15:48:05.023Z,29.02
2022-08-11T15:53:10.002Z,29.01
2022-08-11T15:58:30.729Z,29.23
2022-08-11T16:04:07.119Z,29.14
2022-08-11T16:09:18.488Z,29.04
2022-08-11T16:14:39.616Z,29.37
2022-08-11T16:19:43.732Z,29.30
2022-08-11T16:27:05.817Z,29.05
2022-08-11T16:30:09.072Z,29.26
2022-08-11T16:35:32.247Z,29.55
2022-08-11T16:40:34.565Z,30.40
2022-08-11T16:45:55.308Z,32.27
2022-08-11T16:51:00.912Z,33.72
2022-08-11T16:56:06.650Z,34.77
2022-08-11T17:01:08.720Z,34.83
2022-08-11T17:06:31.680Z,35.59
2022-08-11T17:11:55.961Z,35.16
2022-08-11T17:16:58.303Z,34.51
2022-08-11T17:22:18.803Z,34.64
2022-08-11T17:27:23.967Z,33.44
2022-08-11T17:32:56.151Z,33.84
2022-08-11T17:38:05.228Z,33.47
2022-08-11T17:43:27.056Z,33.31
2022-08-11T17:48:30.148Z,32.68
2022-08-11T17:54:10.157Z,31.72
2022-08-11T17:59:32.400Z,29.25
2022-08-11T18:04:33.414Z,27.46
2022-08-11T18:09:53.165Z,26.54
2022-08-11T18:15:14.069Z,25.60
2022-08-11T18:20:32.185Z,25.15
2022-08-11T18:25:56.942Z,24.84
2022-08-11T18:31:19.131Z,24.43
2022-08-11T18:36:41.270Z,24.16
2022-08-11T18:42:03.199Z,23.95
2022-08-11T18:47:28.894Z,23.63
2022-08-11T18:52:49.679Z,23.41
2022-08-11T18:58:11.609Z,23.16
2022-08-11T19:03:32.333Z,22.99
2022-08-11T19:09:10.868Z,22.73
2022-08-11T19:14:31.548Z,22.54
2022-08-11T19:19:52.650Z,22.37
2022-08-11T19:25:13.142Z,22.18
2022-08-11T19:30:33.302Z,22.05
2022-08-11T19:35:52.304Z,21.89
2022-08-11T19:41:11.309Z,21.70
2022-08-11T19:46:31.852Z,21.59
2022-08-11T19:51:53.994Z,21.54
2022-08-11T19:57:13.475Z,21.43
2022-08-11T20:02:33.517Z,21.21
2022-08-11T20:07:52.417Z,21.22
2022-08-11T20:13:12.375Z,21.22
2022-08-11T20:18:42.570Z,20.97
2022-08-11T20:24:03.038Z,20.83
2022-08-11T20:29:21.688Z,20.71
2022-08-11T20:34:43.086Z,20.56
2022-08-11T20:40:04.104Z,20.58
2022-08-11T20:45:24.237Z,20.50
2022-08-11T20:50:45.628Z,20.41
2022-08-11T20:56:28.689Z,20.31
2022-08-11T21:01:52.227Z,20.36
2022-08-11T21:07:27.054Z,20.24
2022-08-11T21:12:50.735Z,20.16
2022-08-11T21:18:10.452Z,19.97
2022-08-11T21:23:50.683Z,19.83
2022-08-11T21:29:11.654Z,19.77
2022-08-11T21:34:32.449Z,19.55
2022-08-11T21:39:53.604Z,19.58
2022-08-11T21:45:13.723Z,19.57
2022-08-11T21:50:32.130Z,19.40
2022-08-11T21:55:53.447Z,19.35
2022-08-11T22:01:13.133Z,19.31
2022-08-11T22:06:32.291Z,19.25
2022-08-11T22:12:33.912Z,19.12
2022-08-11T22:17:30.844Z,18.98
2022-08-11T22:22:52.752Z,18.87
2022-08-11T22:28:13.079Z,18.80
2022-08-11T22:33:33.693Z,18.76
2022-08-11T22:38:53.906Z,18.72
2022-08-11T22:44:13.708Z,18.59
2022-08-11T22:49:42.295Z,18.56
2022-08-11T22:55:01.410Z,18.52
2022-08-11T23:00:21.196Z,18.38
2022-08-11T23:05:40.022Z,18.28
2022-08-11T23:10:59.480Z,18.16
2022-08-11T23:16:20.138Z,18.14
2022-08-11T23:21:38.936Z,17.99
2022-08-11T23:26:58.777Z,17.79
2022-08-11T23:32:21.300Z,17.77
2022-08-11T23:37:40.049Z,17.67
2022-08-11T23:42:59.437Z,17.56
2022-08-11T23:48:20.880Z,17.50
2022-08-11T23:53:39.725Z,17.49
2022-08-11T23:58:58.121Z,17.47
